Time;durP1;ratioP1;P1;durP2;ratioP2;P2;SDS_P1;SDS_P2;PMS_P1;PMS_P2;Temp;Humidity;BMP_temperature;BMP_pressure;BME280_temperature;BME280_humidity;BME280_pressure;Samples;Min_cycle;Max_cycle;Signal;HPM_P1;HPM_P2
2022/11/20 00:00:24;;;;;;;3.25;1.75;;;2.20;73.20;;;;;;4114124;28;20085;-87
2022/11/20 00:02:44;;;;;;;4.60;1.30;;;2.20;73.30;;;;;;4113504;28;20149;-85
2022/11/20 00:05:03;;;;;;;4.03;1.85;;;2.20;73.20;;;;;;4118809;28;20052;-85
2022/11/20 00:07:22;;;;;;;4.95;1.52;;;2.20;73.10;;;;;;4107495;28;20041;-85
2022/11/20 00:09:41;;;;;;;6.47;1.92;;;2.20;73.20;;;;;;4117140;28;20121;-84
2022/11/20 00:12:01;;;;;;;4.00;1.55;;;2.20;73.00;;;;;;4118059;28;20041;-85
2022/11/20 00:14:20;;;;;;;4.85;1.58;;;2.20;73.00;;;;;;4120698;28;20533;-85
2022/11/20 00:16:39;;;;;;;3.15;1.45;;;2.20;73.00;;;;;;4112243;28;20061;-85
2022/11/20 00:18:58;;;;;;;5.95;1.55;;;2.20;72.90;;;;;;4113176;28;20046;-86
2022/11/20 00:21:24;;;;;;;9.25;1.55;;;2.20;72.90;;;;;;4102142;28;20125;-85
2022/11/20 00:23:43;;;;;;;7.10;1.88;;;2.20;72.90;;;;;;4121834;28;20816;-86
2022/11/20 00:26:05;;;;;;;5.65;1.60;;;2.20;72.70;;;;;;4107352;28;20038;-84
2022/11/20 00:28:24;;;;;;;4.65;1.70;;;2.20;72.60;;;;;;4105311;28;21033;-85
2022/11/20 00:30:43;;;;;;;4.25;1.90;;;2.20;72.60;;;;;;4118453;28;20057;-84
2022/11/20 00:33:02;;;;;;;3.28;1.70;;;2.20;72.50;;;;;;4127649;28;20057;-85
2022/11/20 00:35:21;;;;;;;3.60;2.13;;;2.20;72.50;;;;;;4116963;28;20171;-85
2022/11/20 00:37:40;;;;;;;5.70;1.52;;;2.20;73.20;;;;;;4117570;28;20529;-85
2022/11/20 00:39:59;;;;;;;4.47;1.30;;;2.20;72.40;;;;;;4104987;28;20101;-84
2022/11/20 00:42:18;;;;;;;4.85;1.50;;;2.20;73.20;;;;;;4108846;28;20037;-85
2022/11/20 00:44:38;;;;;;;4.22;1.48;;;2.20;72.50;;;;;;4116782;28;20100;-84
2022/11/20 00:46:57;;;;;;;4.43;1.73;;;2.10;72.40;;;;;;4116951;28;20046;-82
2022/11/20 00:49:16;;;;;;;4.90;1.67;;;2.10;72.50;;;;;;4100751;28;20041;-86
2022/11/20 00:51:35;;;;;;;3.10;1.50;;;2.10;72.40;;;;;;4115627;28;20173;-85
2022/11/20 00:53:56;;;;;;;5.32;1.40;;;2.10;72.50;;;;;;4117427;28;20040;-86
2022/11/20 00:56:18;;;;;;;7.25;1.52;;;2.10;72.50;;;;;;4102029;28;20616;-86
2022/11/20 00:58:39;;;;;;;4.32;1.30;;;2.10;72.50;;;;;;4116891;28;20100;-86
2022/11/20 01:01:04;;;;;;;2.50;1.30;;;2.10;72.60;;;;;;4113572;28;20113;-86
2022/11/20 01:03:24;;;;;;;6.18;1.33;;;2.10;72.70;;;;;;4113979;28;20145;-85
2022/11/20 01:05:43;;;;;;;3.38;1.30;;;2.10;72.70;;;;;;4103252;28;20514;-86
2022/11/20 01:08:02;;;;;;;4.15;1.48;;;2.10;72.80;;;;;;4103962;28;20041;-86
2022/11/20 01:10:21;;;;;;;9.35;1.70;;;2.10;72.90;;;;;;4115369;28;20089;-85
2022/11/20 01:12:40;;;;;;;3.85;1.60;;;2.10;73.10;;;;;;4132119;28;20040;-86
2022/11/20 01:15:00;;;;;;;2.45;1.40;;;2.10;72.90;;;;;;4130988;28;20112;-86
2022/11/20 01:17:19;;;;;;;5.35;1.30;;;2.10;72.90;;;;;;4116596;28;20041;-86
2022/11/20 01:19:38;;;;;;;4.68;1.40;;;2.10;72.90;;;;;;4096774;28;20038;-84
2022/11/20 01:21:57;;;;;;;3.05;1.42;;;2.00;72.90;;;;;;4105072;28;20090;-86
2022/11/20 01:24:18;;;;;;;3.55;1.50;;;2.10;73.00;;;;;;4119781;28;20189;-84
2022/11/20 01:26:39;;;;;;;4.15;1.30;;;2.10;73.10;;;;;;4136702;28;20096;-84
2022/11/20 01:29:00;;;;;;;3.65;1.40;;;2.20;73.30;;;;;;4119608;28;20110;-84
2022/11/20 01:31:25;;;;;;;3.47;1.50;;;2.10;73.20;;;;;;4117660;28;20098;-85
2022/11/20 01:33:46;;;;;;;3.60;1.48;;;2.10;73.30;;;;;;4103312;28;20057;-84
2022/11/20 01:36:06;;;;;;;2.08;1.27;;;2.00;73.30;;;;;;4127250;28;20037;-85
2022/11/20 01:38:25;;;;;;;6.60;1.58;;;2.10;73.50;;;;;;4124671;28;20121;-85
2022/11/20 01:40:45;;;;;;;3.22;1.40;;;2.00;73.40;;;;;;4121032;28;20076;-86
2022/11/20 01:43:20;;;;;;;2.53;1.05;;;2.00;73.60;;;;;;4107072;28;20041;-86
2022/11/20 01:46:05;;;;;;;2.60;1.50;;;2.00;73.60;;;;;;4106475;28;20054;-86
2022/11/20 01:48:33;;;;;;;3.33;1.50;;;2.00;73.70;;;;;;4117787;28;20114;-86
2022/11/20 01:50:53;;;;;;;2.83;1.10;;;2.00;73.70;;;;;;4114042;28;22525;-86
2022/11/20 01:53:16;;;;;;;2.03;1.15;;;2.00;74.00;;;;;;4104216;28;20117;-86
2022/11/20 01:55:41;;;;;;;2.60;1.25;;;2.00;74.70;;;;;;4116594;28;20041;-86
2022/11/20 01:58:02;;;;;;;4.82;1.25;;;2.00;74.00;;;;;;4117930;28;20096;-86
2022/11/20 02:00:21;;;;;;;0.95;0.85;;;2.00;74.20;;;;;;4118828;28;20560;-87
2022/11/20 02:02:45;;;;;;;3.30;1.30;;;2.00;74.40;;;;;;4119204;28;20080;-85
2022/11/20 02:05:42;;;;;;;1.65;0.80;;;2.00;74.50;;;;;;4119640;28;20053;-85
2022/11/20 02:08:03;;;;;;;2.08;1.13;;;2.00;75.40;;;;;;4085139;28;20033;-85
2022/11/20 02:10:26;;;;;;;5.20;1.20;;;2.00;74.90;;;;;;4114372;28;20037;-85
2022/11/20 02:15:23;;;;;;;1.05;0.63;;;1.90;75.30;;;;;;4130068;28;20073;-84
2022/11/20 02:17:43;;;;;;;1.17;0.75;;;1.90;75.50;;;;;;4139009;28;20057;-84
2022/11/20 02:20:02;;;;;;;1.70;0.93;;;1.90;75.50;;;;;;4110265;28;20053;-85
2022/11/20 02:22:30;;;;;;;0.93;0.50;;;1.90;76.00;;;;;;4118920;28;20056;-85
2022/11/20 02:24:51;;;;;;;0.45;0.40;;;1.90;76.20;;;;;;4126053;28;20129;-86
2022/11/20 02:26:57;;;;;;;0.73;0.40;;;1.90;76.20;;;;;;4118763;28;20482;-85
2022/11/20 02:29:00;;;;;;;1.58;0.60;;;1.90;76.00;;;;;;4116877;28;20035;-85
2022/11/20 02:31:01;;;;;;;1.95;0.50;;;1.80;76.10;;;;;;4100419;28;20038;-84
2022/11/20 02:33:02;;;;;;;0.63;0.50;;;1.90;75.90;;;;;;4106301;28;20117;-85
2022/11/20 02:35:17;;;;;;;0.38;0.30;;;1.80;76.00;;;;;;4116771;28;20177;-85
2022/11/20 02:37:20;;;;;;;0.22;0.20;;;1.80;76.80;;;;;;4089774;28;20063;-85
2022/11/20 02:39:24;;;;;;;1.27;0.40;;;1.80;75.90;;;;;;4104994;28;20039;-85
2022/11/20 02:41:33;;;;;;;1.15;0.40;;;1.80;75.80;;;;;;4099418;28;20431;-85
2022/11/20 02:43:34;;;;;;;1.27;0.70;;;1.80;75.90;;;;;;4117642;28;20023;-85
2022/11/20 02:45:34;;;;;;;1.73;0.90;;;1.80;76.00;;;;;;4117343;28;20779;-85
2022/11/20 02:47:35;;;;;;;3.00;0.70;;;1.80;76.00;;;;;;4116208;28;20053;-86
2022/11/20 02:49:36;;;;;;;1.02;0.75;;;1.80;75.90;;;;;;4121546;28;20122;-85
2022/11/20 02:51:36;;;;;;;2.67;0.75;;;1.80;76.00;;;;;;4123345;28;21526;-85
2022/11/20 02:53:37;;;;;;;1.35;0.90;;;1.80;76.10;;;;;;4123030;28;20058;-84
2022/11/20 02:55:38;;;;;;;3.70;0.85;;;1.80;76.00;;;;;;4132703;28;20042;-84
2022/11/20 02:57:38;;;;;;;1.15;0.80;;;1.80;76.10;;;;;;4101980;28;20027;-85
2022/11/20 02:59:39;;;;;;;1.70;0.90;;;1.90;76.00;;;;;;4115943;28;20034;-84
2022/11/20 03:01:40;;;;;;;2.38;0.80;;;1.90;76.10;;;;;;4121540;28;20113;-85
2022/11/20 03:03:41;;;;;;;2.22;1.13;;;1.90;76.00;;;;;;4105098;28;20061;-85
2022/11/20 03:05:41;;;;;;;1.67;0.93;;;1.90;75.90;;;;;;4122223;28;20022;-85
2022/11/20 03:07:43;;;;;;;1.50;0.80;;;1.90;75.90;;;;;;4135426;28;20033;-84
2022/11/20 03:09:45;;;;;;;3.08;0.90;;;1.90;75.80;;;;;;4104306;28;20023;-85
2022/11/20 03:12:05;;;;;;;2.17;1.02;;;1.90;75.80;;;;;;4132131;28;20042;-84
2022/11/20 03:14:07;;;;;;;1.80;0.98;;;1.90;75.70;;;;;;4109028;28;20529;-85
2022/11/20 03:16:27;;;;;;;3.75;1.42;;;1.90;75.80;;;;;;4118763;28;20035;-85
2022/11/20 03:18:48;;;;;;;2.42;1.52;;;2.00;75.80;;;;;;4102343;28;20114;-83
2022/11/20 03:21:11;;;;;;;3.22;1.92;;;2.00;75.80;;;;;;4118858;28;20082;-85
2022/11/20 03:23:32;;;;;;;4.15;2.20;;;2.00;75.70;;;;;;4118808;28;20061;-85
2022/11/20 03:25:53;;;;;;;3.58;1.90;;;2.00;75.80;;;;;;4106924;28;20089;-84
2022/11/20 03:28:14;;;;;;;2.92;1.67;;;2.00;75.70;;;;;;4102813;28;20030;-85
2022/11/20 03:30:34;;;;;;;3.75;1.45;;;2.00;75.70;;;;;;4122371;28;20034;-85
2022/11/20 03:32:37;;;;;;;4.07;1.88;;;2.00;75.80;;;;;;4103591;28;20442;-84
2022/11/20 03:34:57;;;;;;;2.50;1.38;;;2.00;75.80;;;;;;4119112;28;20022;-85
2022/11/20 03:37:18;;;;;;;3.35;1.60;;;2.00;75.80;;;;;;4119043;28;20482;-85
2022/11/20 03:39:39;;;;;;;1.50;1.15;;;2.00;75.80;;;;;;4106405;28;20030;-84
2022/11/20 03:41:49;;;;;;;1.85;1.08;;;1.90;75.80;;;;;;4090865;28;20122;-85
2022/11/20 03:44:11;;;;;;;1.73;1.10;;;2.00;76.00;;;;;;4109517;28;20035;-85
2022/11/20 03:46:32;;;;;;;1.33;0.90;;;2.00;76.50;;;;;;4123071;28;20092;-84
2022/11/20 03:48:53;;;;;;;2.72;0.93;;;2.00;76.60;;;;;;4123301;28;20034;-87
2022/11/20 03:51:16;;;;;;;2.08;0.70;;;2.00;76.70;;;;;;4111115;28;20039;-87
2022/11/20 03:53:37;;;;;;;1.67;0.60;;;2.00;76.60;;;;;;4104204;28;20046;-86
2022/11/20 03:55:58;;;;;;;0.88;0.68;;;2.00;76.70;;;;;;4105145;28;20031;-84
2022/11/20 03:58:18;;;;;;;1.38;0.63;;;1.90;77.00;;;;;;4121007;28;20046;-84
2022/11/20 04:00:39;;;;;;;1.02;0.50;;;1.90;76.90;;;;;;4120194;28;20145;-85
2022/11/20 04:03:00;;;;;;;1.08;0.60;;;2.00;76.90;;;;;;4103546;28;20039;-85
2022/11/20 04:05:21;;;;;;;0.68;0.50;;;2.00;77.00;;;;;;4103286;28;20063;-85
2022/11/20 04:07:41;;;;;;;0.88;0.57;;;1.90;77.00;;;;;;4106084;28;20042;-86
2022/11/20 04:10:02;;;;;;;1.05;0.70;;;1.90;77.00;;;;;;4118558;28;20089;-86
2022/11/20 04:12:23;;;;;;;1.00;0.60;;;1.90;77.00;;;;;;4125366;28;20030;-86
2022/11/20 04:14:43;;;;;;;2.25;0.98;;;2.00;76.90;;;;;;4105917;28;20039;-86
2022/11/20 04:17:04;;;;;;;1.85;1.00;;;2.00;77.30;;;;;;4120946;28;20060;-86
2022/11/20 04:19:25;;;;;;;1.88;0.80;;;1.90;78.10;;;;;;4119088;28;20486;-87
2022/11/20 04:21:45;;;;;;;1.65;0.88;;;2.00;77.90;;;;;;4121309;28;20035;-86
2022/11/20 04:24:06;;;;;;;1.23;0.98;;;2.00;77.20;;;;;;4121373;28;20030;-86
2022/11/20 04:26:29;;;;;;;1.60;0.70;;;2.00;77.10;;;;;;4119595;28;20100;-87
2022/11/20 04:28:50;;;;;;;2.47;1.13;;;2.00;77.00;;;;;;4119735;28;20038;-86
2022/11/20 04:31:16;;;;;;;1.73;0.90;;;2.00;76.60;;;;;;4103474;28;20074;-85
2022/11/20 04:33:37;;;;;;;1.27;0.80;;;2.00;76.70;;;;;;4119661;28;20042;-85
2022/11/20 04:36:12;;;;;;;0.95;0.70;;;2.00;76.70;;;;;;4118039;28;20038;-85
2022/11/20 04:38:33;;;;;;;2.55;1.15;;;2.10;76.80;;;;;;4114604;28;20402;-85
2022/11/20 04:41:02;;;;;;;1.10;0.90;;;2.10;76.70;;;;;;4120067;28;20411;-85
2022/11/20 04:43:23;;;;;;;3.15;0.88;;;2.10;76.50;;;;;;4118416;28;20034;-84
2022/11/20 04:45:51;;;;;;;1.95;0.90;;;2.10;76.70;;;;;;4118091;28;20042;-83
2022/11/20 04:48:12;;;;;;;1.85;0.75;;;2.10;76.50;;;;;;4104424;28;20046;-87
2022/11/20 04:50:32;;;;;;;1.27;0.82;;;2.10;76.60;;;;;;4121748;28;20038;-85
2022/11/20 04:52:53;;;;;;;1.58;0.90;;;2.10;76.70;;;;;;4121038;28;20059;-87
2022/11/20 04:55:13;;;;;;;1.48;1.00;;;2.10;76.60;;;;;;4122625;28;20034;-84
2022/11/20 04:57:34;;;;;;;1.58;0.80;;;2.10;76.70;;;;;;4118146;28;20038;-85
2022/11/20 04:59:55;;;;;;;1.80;0.98;;;2.10;76.50;;;;;;4106190;28;20122;-86
2022/11/20 05:02:15;;;;;;;1.27;0.70;;;2.10;76.20;;;;;;4119123;28;20077;-84
2022/11/20 05:04:36;;;;;;;2.85;1.08;;;2.10;75.70;;;;;;4123179;28;20062;-85
2022/11/20 05:06:56;;;;;;;1.83;0.85;;;2.10;75.70;;;;;;4117358;28;20066;-85
2022/11/20 05:09:17;;;;;;;1.35;0.70;;;2.10;75.90;;;;;;4119233;28;20562;-85
2022/11/20 05:11:38;;;;;;;1.48;0.63;;;2.00;75.80;;;;;;4119071;28;20045;-84
2022/11/20 05:13:59;;;;;;;0.90;0.50;;;2.10;75.10;;;;;;4121234;28;20031;-84
2022/11/20 05:16:22;;;;;;;2.00;0.80;;;2.00;74.50;;;;;;4122020;28;20027;-85
2022/11/20 05:18:43;;;;;;;1.15;0.68;;;1.90;73.90;;;;;;4121964;28;20480;-85
2022/11/20 05:21:05;;;;;;;1.00;0.60;;;1.90;73.70;;;;;;4104649;28;20035;-85
2022/11/20 05:23:26;;;;;;;1.20;0.68;;;1.90;73.60;;;;;;4120440;28;20040;-84
2022/11/20 05:25:47;;;;;;;2.53;0.77;;;1.90;73.20;;;;;;4103793;28;20723;-85
2022/11/20 05:28:07;;;;;;;1.20;0.75;;;1.90;73.30;;;;;;4121667;28;20034;-85
2022/11/20 05:30:28;;;;;;;1.55;0.73;;;1.90;73.00;;;;;;4103370;28;20031;-85
2022/11/20 05:32:49;;;;;;;1.67;0.82;;;1.90;72.80;;;;;;4117793;28;20037;-85
2022/11/20 05:35:09;;;;;;;1.58;0.70;;;1.80;72.60;;;;;;4104846;28;20042;-85
2022/11/20 05:37:30;;;;;;;1.52;0.70;;;1.80;72.50;;;;;;4118190;28;20030;-85
2022/11/20 05:39:50;;;;;;;1.73;1.08;;;1.80;72.30;;;;;;4116031;28;20043;-84
2022/11/20 05:44:49;;;;;;;1.15;0.50;;;1.70;72.00;;;;;;4118113;28;20329;-85
2022/11/20 05:47:08;;;;;;;0.80;0.70;;;1.70;72.00;;;;;;4120662;28;20072;-84
2022/11/20 05:49:27;;;;;;;1.65;1.00;;;1.70;72.10;;;;;;4117603;28;20068;-84
2022/11/20 05:51:46;;;;;;;0.85;0.70;;;1.60;72.20;;;;;;4116301;28;20089;-85
2022/11/20 05:54:05;;;;;;;1.65;1.00;;;1.60;72.30;;;;;;4105299;28;20046;-84
2022/11/20 05:56:25;;;;;;;1.48;1.00;;;1.50;72.50;;;;;;4117305;28;20596;-84
2022/11/20 05:58:45;;;;;;;4.00;0.90;;;1.60;72.60;;;;;;4104816;28;20029;-85
2022/11/20 06:01:07;;;;;;;2.10;1.08;;;1.60;72.60;;;;;;4104947;28;20065;-84
2022/11/20 06:03:26;;;;;;;1.33;0.98;;;1.50;72.40;;;;;;4121068;28;20033;-84
2022/11/20 06:05:45;;;;;;;1.30;1.02;;;1.60;72.50;;;;;;4113953;28;20073;-84
2022/11/20 06:08:05;;;;;;;1.42;1.00;;;1.50;72.30;;;;;;4101075;28;20078;-85
2022/11/20 06:10:24;;;;;;;1.33;0.98;;;1.50;72.30;;;;;;4118156;28;20036;-84
2022/11/20 06:12:43;;;;;;;1.10;0.90;;;1.50;72.40;;;;;;4120763;28;20052;-84
2022/11/20 06:15:03;;;;;;;2.33;1.10;;;1.50;72.70;;;;;;4106895;28;20042;-84
2022/11/20 06:17:23;;;;;;;1.75;1.23;;;1.50;72.60;;;;;;4101310;28;20078;-85
2022/11/20 06:19:42;;;;;;;2.45;1.25;;;1.40;72.80;;;;;;4102874;28;20045;-84
2022/11/20 06:22:01;;;;;;;1.75;1.10;;;1.40;72.80;;;;;;4113819;28;20042;-85
2022/11/20 06:24:20;;;;;;;2.78;1.27;;;1.40;73.00;;;;;;4109695;28;20042;-85
2022/11/20 06:26:39;;;;;;;3.35;1.10;;;1.40;73.00;;;;;;4114762;28;20032;-85
2022/11/20 06:28:58;;;;;;;1.67;0.90;;;1.40;73.00;;;;;;4099151;28;21919;-85
2022/11/20 06:31:21;;;;;;;3.53;1.20;;;1.40;72.80;;;;;;4112889;28;20065;-84
2022/11/20 06:33:42;;;;;;;1.77;1.02;;;1.40;72.90;;;;;;4105646;28;20081;-85
2022/11/20 06:36:01;;;;;;;1.42;1.02;;;1.30;72.80;;;;;;4118477;28;20529;-85
2022/11/20 06:38:21;;;;;;;2.08;0.93;;;1.40;72.80;;;;;;4129868;28;20744;-85
2022/11/20 06:40:41;;;;;;;2.55;1.10;;;1.30;72.90;;;;;;4116952;28;20100;-84
2022/11/20 06:43:01;;;;;;;2.00;1.20;;;1.30;73.10;;;;;;4117216;28;20073;-85
2022/11/20 06:45:20;;;;;;;2.53;1.10;;;1.20;73.20;;;;;;4121235;28;20049;-84
2022/11/20 06:47:39;;;;;;;2.17;1.20;;;1.30;73.40;;;;;;4113494;28;20860;-86
2022/11/20 06:49:58;;;;;;;1.70;1.30;;;1.30;73.50;;;;;;4116780;28;21865;-85
2022/11/20 06:52:17;;;;;;;2.50;1.00;;;1.30;73.50;;;;;;4116577;28;20077;-85
2022/11/20 06:54:36;;;;;;;2.35;1.08;;;1.30;73.70;;;;;;4105071;28;20179;-85
2022/11/20 06:56:55;;;;;;;2.65;1.38;;;1.30;73.60;;;;;;4116099;28;20043;-85
2022/11/20 06:59:15;;;;;;;2.38;1.10;;;1.30;74.00;;;;;;4102493;28;21385;-85
2022/11/20 07:01:34;;;;;;;2.55;1.42;;;1.40;74.00;;;;;;4119362;28;20070;-85
2022/11/20 07:03:53;;;;;;;2.60;1.30;;;1.30;74.10;;;;;;4119412;28;20775;-86
2022/11/20 07:06:12;;;;;;;2.83;1.30;;;1.30;74.10;;;;;;4126079;28;20037;-85
2022/11/20 07:08:32;;;;;;;2.47;1.15;;;1.30;74.00;;;;;;4107634;28;20037;-84
2022/11/20 07:10:53;;;;;;;2.85;1.35;;;1.40;74.00;;;;;;4121333;28;20088;-85
2022/11/20 07:13:12;;;;;;;5.85;2.55;;;1.40;73.90;;;;;;4114809;28;20483;-86
2022/11/20 07:15:31;;;;;;;4.57;1.92;;;1.40;73.90;;;;;;4102307;28;20037;-86
2022/11/20 07:17:50;;;;;;;3.13;1.55;;;1.40;73.80;;;;;;4116585;28;20089;-85
2022/11/20 07:20:10;;;;;;;3.20;1.30;;;1.40;73.80;;;;;;4105162;28;20069;-86
2022/11/20 07:22:29;;;;;;;3.22;1.35;;;1.40;73.90;;;;;;4116547;28;20046;-86
2022/11/20 07:24:48;;;;;;;1.38;1.20;;;1.40;73.70;;;;;;4098089;28;20186;-85
2022/11/20 07:27:07;;;;;;;2.20;1.50;;;1.40;73.50;;;;;;4117371;28;20771;-85
2022/11/20 07:29:26;;;;;;;6.47;2.50;;;1.40;73.50;;;;;;4099171;28;20486;-85
2022/11/20 07:31:45;;;;;;;5.47;2.67;;;1.50;73.50;;;;;;4103142;28;20077;-86
2022/11/20 07:34:05;;;;;;;3.53;1.80;;;1.40;73.40;;;;;;4113508;28;20081;-84
2022/11/20 07:36:24;;;;;;;2.70;1.50;;;1.50;73.40;;;;;;4119673;28;20049;-86
2022/11/20 07:38:43;;;;;;;2.22;1.50;;;1.50;73.40;;;;;;4099996;28;20046;-84
2022/11/20 07:41:02;;;;;;;3.55;1.80;;;1.50;73.30;;;;;;4125763;28;20041;-85
2022/11/20 07:43:21;;;;;;;3.55;1.75;;;1.50;72.80;;;;;;4128205;28;20057;-86
2022/11/20 07:45:40;;;;;;;3.03;1.58;;;1.50;72.80;;;;;;4117268;28;20069;-85
2022/11/20 07:47:59;;;;;;;5.53;1.50;;;1.40;72.50;;;;;;4115054;28;20100;-84
2022/11/20 07:50:19;;;;;;;3.63;1.50;;;1.40;72.40;;;;;;4118242;28;20097;-85
2022/11/20 07:52:38;;;;;;;2.58;1.33;;;1.40;72.40;;;;;;4116340;28;20068;-86
2022/11/20 07:54:57;;;;;;;5.63;1.67;;;1.40;72.10;;;;;;4116409;28;20045;-85
2022/11/20 07:57:16;;;;;;;2.97;1.50;;;1.40;71.80;;;;;;4112363;28;20112;-84
2022/11/20 07:59:35;;;;;;;2.78;1.63;;;1.50;71.60;;;;;;4102069;28;20589;-84
2022/11/20 08:01:55;;;;;;;2.42;1.60;;;1.40;71.40;;;;;;4117475;28;20050;-84
2022/11/20 08:04:16;;;;;;;3.45;1.58;;;1.30;71.20;;;;;;4109346;28;20112;-85
2022/11/20 08:06:36;;;;;;;3.20;1.75;;;1.40;71.50;;;;;;4114413;28;20096;-86
2022/11/20 08:08:55;;;;;;;2.40;1.50;;;1.40;71.40;;;;;;4101748;28;20075;-85
2022/11/20 08:16:29;;;;;;;3.63;1.58;;;1.30;71.10;;;;;;4118282;28;20066;-86
2022/11/20 08:18:49;;;;;;;6.03;2.67;;;1.30;71.10;;;;;;4121360;28;20073;-84
2022/11/20 08:21:08;;;;;;;2.67;1.42;;;1.30;71.30;;;;;;4114851;28;20050;-86
2022/11/20 08:23:27;;;;;;;4.05;1.40;;;1.30;71.40;;;;;;4103562;28;20079;-85
2022/11/20 08:25:50;;;;;;;2.40;1.33;;;1.30;71.50;;;;;;4116298;28;20037;-86
2022/11/20 08:28:10;;;;;;;5.45;1.50;;;1.30;71.80;;;;;;4114598;28;20042;-86
2022/11/20 08:30:29;;;;;;;3.97;1.75;;;1.30;71.90;;;;;;4108815;28;20092;-84
2022/11/20 08:32:48;;;;;;;1.77;1.42;;;1.30;71.90;;;;;;4115127;28;20033;-86
2022/11/20 08:35:08;;;;;;;3.50;1.60;;;1.40;72.00;;;;;;4120612;28;20057;-84
2022/11/20 08:37:27;;;;;;;4.65;1.17;;;1.30;71.80;;;;;;4096946;28;21155;-86
2022/11/20 08:39:46;;;;;;;2.22;1.52;;;1.30;71.80;;;;;;4111585;28;20109;-86
2022/11/20 08:42:09;;;;;;;2.28;1.25;;;1.30;71.60;;;;;;4110348;28;20072;-86
2022/11/20 08:44:28;;;;;;;2.78;1.20;;;1.30;71.00;;;;;;4113832;28;20093;-85
2022/11/20 08:46:48;;;;;;;4.32;1.63;;;1.30;70.90;;;;;;4124668;28;20053;-85
2022/11/20 08:49:09;;;;;;;1.58;1.00;;;1.30;70.90;;;;;;4116844;28;20089;-85
2022/11/20 08:51:28;;;;;;;3.45;1.40;;;1.30;70.80;;;;;;4114595;28;20311;-86
2022/11/20 08:53:48;;;;;;;2.35;1.60;;;1.30;70.70;;;;;;4103566;28;20081;-83
2022/11/20 08:56:09;;;;;;;5.38;1.38;;;1.30;70.60;;;;;;4105410;28;20050;-86
2022/11/20 08:58:28;;;;;;;3.53;1.48;;;1.30;70.60;;;;;;4115205;28;22298;-86
2022/11/20 09:00:47;;;;;;;6.90;2.95;;;1.30;70.70;;;;;;4121946;28;20046;-85
2022/11/20 09:03:07;;;;;;;5.25;2.20;;;1.30;70.60;;;;;;4101926;28;21015;-83
2022/11/20 09:05:26;;;;;;;9.65;2.90;;;1.20;70.50;;;;;;4112636;28;20041;-84
2022/11/20 09:07:45;;;;;;;2.13;1.30;;;1.20;70.50;;;;;;4118658;28;20061;-84
2022/11/20 09:10:04;;;;;;;2.85;1.65;;;1.20;70.10;;;;;;4110801;28;20504;-84
2022/11/20 09:12:23;;;;;;;2.90;1.65;;;1.20;70.20;;;;;;4101968;28;20088;-85
2022/11/20 09:14:42;;;;;;;3.05;1.85;;;1.20;70.30;;;;;;4114123;28;20136;-85
2022/11/20 09:17:02;;;;;;;13.38;5.65;;;1.20;70.20;;;;;;4116549;28;20121;-83
2022/11/20 09:19:21;;;;;;;4.30;1.88;;;1.20;70.50;;;;;;4107412;28;21511;-84
2022/11/20 09:21:40;;;;;;;6.40;2.65;;;1.20;70.70;;;;;;4107630;28;20073;-85
2022/11/20 09:23:59;;;;;;;7.22;3.20;;;1.30;71.00;;;;;;4091160;28;20033;-84
2022/11/20 09:26:19;;;;;;;12.65;4.38;;;1.30;71.20;;;;;;4115066;28;20065;-84
2022/11/20 09:28:39;;;;;;;12.95;4.85;;;1.20;71.40;;;;;;4110595;28;20041;-84
2022/11/20 09:30:59;;;;;;;9.55;4.50;;;1.30;71.60;;;;;;4104096;28;20049;-84
2022/11/20 09:33:18;;;;;;;9.82;4.07;;;1.30;71.30;;;;;;4112716;28;20045;-84
2022/11/20 09:35:38;;;;;;;9.15;4.55;;;1.30;70.80;;;;;;4092073;28;20097;-83
2022/11/20 09:37:57;;;;;;;3.13;1.95;;;1.40;70.80;;;;;;4111333;28;20044;-84
2022/11/20 09:40:23;;;;;;;2.15;1.45;;;1.40;70.90;;;;;;4108776;28;20099;-84
2022/11/20 09:43:03;;;;;;;3.78;1.10;;;1.50;70.90;;;;;;4107706;28;20170;-83
2022/11/20 09:45:38;;;;;;;3.17;1.90;;;1.50;70.80;;;;;;4114672;28;20398;-84
2022/11/20 09:48:09;;;;;;;5.13;2.83;;;1.50;70.40;;;;;;4115662;28;20549;-83
2022/11/20 09:50:34;;;;;;;4.90;2.63;;;1.50;70.10;;;;;;4111601;28;20037;-83
2022/11/20 09:53:15;;;;;;;5.68;2.75;;;1.50;70.00;;;;;;4117988;28;20037;-83
2022/11/20 09:55:37;;;;;;;2.88;1.67;;;1.50;69.70;;;;;;4118157;28;20092;-84
2022/11/20 09:57:57;;;;;;;4.20;2.28;;;1.50;70.10;;;;;;4115405;28;20493;-84
2022/11/20 10:00:21;;;;;;;3.20;1.60;;;1.60;70.40;;;;;;4112397;28;20049;-83
2022/11/20 10:02:58;;;;;;;2.63;1.50;;;1.60;70.50;;;;;;4107702;28;20493;-85
2022/11/20 10:05:22;;;;;;;2.53;1.38;;;1.60;70.40;;;;;;4112621;28;20136;-84
2022/11/20 10:08:13;;;;;;;7.40;1.60;;;1.60;70.10;;;;;;4104189;28;20548;-85
2022/11/20 10:10:56;;;;;;;3.78;2.00;;;1.70;70.10;;;;;;4111447;28;20061;-86
2022/11/20 10:13:58;;;;;;;2.72;1.50;;;1.80;70.20;;;;;;4109972;28;20088;-85
2022/11/20 10:16:17;;;;;;;4.50;1.40;;;1.80;70.00;;;;;;4107187;28;20093;-86
2022/11/20 10:18:54;;;;;;;3.30;1.33;;;1.80;69.70;;;;;;4105993;28;20038;-85
2022/11/20 10:21:29;;;;;;;1.38;1.20;;;1.80;69.80;;;;;;4094962;28;20633;-85
2022/11/20 10:24:23;;;;;;;3.15;1.77;;;1.90;69.40;;;;;;4099599;28;20482;-86
2022/11/20 10:27:20;;;;;;;3.05;1.30;;;1.90;69.10;;;;;;4126600;28;20052;-86
2022/11/20 10:29:43;;;;;;;4.10;1.65;;;1.90;68.90;;;;;;4108606;28;20050;-85
2022/11/20 10:32:05;;;;;;;6.45;2.00;;;2.00;69.10;;;;;;4100507;28;20034;-85
2022/11/20 10:34:21;;;;;;;3.58;2.08;;;2.00;69.20;;;;;;4124291;28;20045;-85
2022/11/20 10:36:45;;;;;;;2.38;1.42;;;2.00;69.20;;;;;;4129540;28;20026;-85
2022/11/20 10:38:58;;;;;;;3.85;2.03;;;2.00;68.80;;;;;;4110342;28;20106;-85
2022/11/20 10:43:32;;;;;;;2.53;1.52;;;2.00;69.10;;;;;;4124308;28;20036;-85
2022/11/20 10:45:45;;;;;;;5.13;1.35;;;2.00;68.90;;;;;;4108192;28;20034;-86
2022/11/20 10:47:46;;;;;;;6.65;1.77;;;2.00;68.70;;;;;;4113831;28;20101;-86
2022/11/20 10:49:53;;;;;;;3.85;1.63;;;2.00;68.70;;;;;;4112820;28;20030;-87
2022/11/20 10:52:29;;;;;;;1.65;1.15;;;2.00;68.30;;;;;;4135262;28;20041;-85
2022/11/20 10:54:41;;;;;;;2.83;1.73;;;2.00;68.20;;;;;;4097927;28;20082;-85
2022/11/20 10:56:47;;;;;;;4.10;2.08;;;2.10;68.60;;;;;;4112781;28;20035;-86
2022/11/20 10:59:23;;;;;;;3.47;1.85;;;2.10;68.70;;;;;;4107371;28;20035;-85
2022/11/20 11:01:25;;;;;;;1.90;1.20;;;2.10;68.90;;;;;;4064122;29;20048;-86
2022/11/20 11:03:29;;;;;;;2.17;1.42;;;2.10;68.90;;;;;;4074197;28;20478;-86
2022/11/20 11:05:40;;;;;;;;;;;2.20;69.10;;;;;;4123050;28;20618;-86
2022/11/20 11:07:41;;;;;;;3.22;1.33;;;2.20;69.00;;;;;;4125663;28;19917;-86
2022/11/20 11:09:47;;;;;;;4.28;1.40;;;2.20;68.80;;;;;;4129269;28;20065;-86
2022/11/20 11:11:47;;;;;;;2.47;1.27;;;2.20;68.50;;;;;;4130391;28;20116;-86
2022/11/20 11:13:48;;;;;;;2.35;1.13;;;2.20;68.20;;;;;;4131336;28;20034;-86
2022/11/20 11:15:49;;;;;;;1.58;1.08;;;2.20;67.80;;;;;;4114365;28;20542;-85
2022/11/20 11:17:50;;;;;;;2.75;1.05;;;2.20;67.70;;;;;;4094295;28;20185;-86
2022/11/20 11:20:16;;;;;;;2.47;1.25;;;2.20;67.40;;;;;;4128058;28;21532;-85
2022/11/20 11:22:18;;;;;;;1.42;1.10;;;2.20;66.60;;;;;;4104601;28;20054;-85
2022/11/20 11:24:24;;;;;;;1.83;1.08;;;2.20;66.50;;;;;;4113508;28;20030;-85
2022/11/20 11:26:25;;;;;;;4.93;1.38;;;2.20;66.50;;;;;;4141543;28;20022;-84
2022/11/20 11:28:27;;;;;;;3.38;1.42;;;2.20;66.50;;;;;;4128806;28;20031;-83
2022/11/20 11:30:30;;;;;;;2.75;1.58;;;2.20;66.70;;;;;;4141755;28;20030;-86
2022/11/20 11:32:31;;;;;;;2.65;1.15;;;2.20;66.60;;;;;;4134892;28;20601;-86
2022/11/20 11:34:32;;;;;;;2.25;1.20;;;2.20;66.50;;;;;;4133531;28;20038;-86
2022/11/20 11:36:35;;;;;;;2.08;1.02;;;2.20;66.10;;;;;;4131154;28;21555;-86
2022/11/20 11:38:37;;;;;;;3.10;1.50;;;2.20;66.40;;;;;;4113081;28;20038;-86
2022/11/20 11:40:40;;;;;;;2.03;1.42;;;2.10;66.40;;;;;;4111871;28;20049;-87
2022/11/20 11:42:56;;;;;;;2.25;1.20;;;2.20;66.70;;;;;;4113850;28;20404;-85
2022/11/20 11:45:05;;;;;;;4.00;1.70;;;2.10;66.60;;;;;;4114344;28;20030;-86
2022/11/20 11:47:25;;;;;;;2.97;1.60;;;2.20;66.70;;;;;;4100420;28;20417;-86
2022/11/20 11:49:45;;;;;;;2.58;1.40;;;2.20;67.00;;;;;;4130713;28;20112;-86
2022/11/20 11:52:36;;;;;;;3.55;1.30;;;2.20;66.90;;;;;;4135848;28;20034;-84
2022/11/20 11:55:01;;;;;;;2.53;1.38;;;2.20;65.50;;;;;;4133912;28;20372;-85
2022/11/20 11:57:37;;;;;;;2.70;1.40;;;2.30;65.80;;;;;;4137820;28;20030;-85
2022/11/20 12:00:25;;;;;;;3.60;1.92;;;2.30;66.00;;;;;;4132034;28;20037;-85
2022/11/20 12:02:45;;;;;;;2.95;1.35;;;2.20;64.30;;;;;;4125744;28;20140;-85
2022/11/20 12:05:21;;;;;;;2.83;1.60;;;2.30;64.40;;;;;;4121968;28;20515;-86
2022/11/20 12:07:53;;;;;;;3.17;1.48;;;2.30;64.20;;;;;;4131703;28;20072;-85
2022/11/20 12:10:21;;;;;;;3.22;1.58;;;2.30;64.30;;;;;;4130014;28;20061;-85
2022/11/20 12:12:51;;;;;;;1.73;0.93;;;2.30;64.10;;;;;;4118900;28;20049;-86
2022/11/20 12:15:22;;;;;;;3.20;1.23;;;2.40;64.20;;;;;;4134748;28;20053;-85
2022/11/20 12:17:26;;;;;;;2.30;1.20;;;2.50;64.40;;;;;;4116529;28;20046;-85
2022/11/20 12:19:46;;;;;;;3.63;1.40;;;2.50;64.70;;;;;;4114030;28;20353;-85
2022/11/20 12:22:22;;;;;;;2.88;1.23;;;2.60;63.90;;;;;;4127472;28;20080;-85
2022/11/20 12:25:09;;;;;;;6.50;1.10;;;2.50;62.30;;;;;;4130224;28;20150;-85
2022/11/20 12:27:48;;;;;;;1.98;1.20;;;2.60;62.40;;;;;;4118419;28;20137;-87